Kezdőlap
METAR-TAF:

METAR-TAF

Repülőterek :

Zsolna, Szlovákia

földrajzi szélesség: 49-14N, földrajzi hosszúság: 018-36-49E, magasság: 312 m

Jelenlegi meteorológiai megfigyelések

A jelentés 36 perccel ezelõtt készült, 09:30 UTC
Különbözõ irányokból fújó szél 3 kt
Hőmérséklet 27°C
Páratartalom 48%
Légköri nyomás 1021 hPa
Látótávolság 10 km, vagy több
Kevés felhő 4200 lábon

METAR: LZZI 280930Z VRB03KT 9999 FEW042 27/15 Q1021

Idő: 12:06 (10:06 UTC)


TAF: hiányzik

Meteorológiai megfigyelések és előrejelzések több, mint 4000 repülőtéren (METAR és TAF jelentéseket).

A térképen piros és sárga pontok jelzik az elérhető meteorológiai állomásokat.

Mozgassa az egeret a pont fölött, hogy megjelenjen az állomás neve.

Azután kattintson az időjárási megfigyelések és előrejelzések megtekintéséhez.

A térkép megváltoztatása: kattintson a fekete keresztel jelölt zöld gombra ráközelítéshez, a vonallal jelölt zöld gombra távolításhoz, vagy a zöld nyilakra a szomszédos térképek eléréséhez.


METAR-TAF: